createdAt,value
2022-11-19T00:01:40.311Z,6.40
2022-11-19T00:06:42.365Z,3.95
2022-11-19T00:12:03.649Z,4.03
2022-11-19T00:17:05.784Z,8.15
2022-11-19T00:22:07.850Z,4.70
2022-11-19T00:27:09.989Z,4.83
2022-11-19T00:32:12.422Z,1.55
2022-11-19T00:37:14.512Z,6.00
2022-11-19T00:42:16.558Z,8.00
2022-11-19T00:47:19.049Z,4.97
2022-11-19T00:52:21.075Z,5.72
2022-11-19T00:57:23.487Z,3.17
2022-11-19T01:02:25.608Z,3.80
2022-11-19T01:07:27.676Z,4.53
2022-11-19T01:12:29.683Z,5.20
2022-11-19T01:17:31.742Z,8.13
2022-11-19T01:22:33.831Z,6.47
2022-11-19T01:27:35.896Z,7.45
2022-11-19T01:32:38.958Z,6.80
2022-11-19T01:37:41.077Z,10.30
2022-11-19T01:42:49.301Z,3.30
2022-11-19T01:47:53.647Z,8.05
2022-11-19T01:52:55.887Z,7.10
2022-11-19T01:58:01.313Z,4.90
2022-11-19T02:03:03.410Z,5.40
2022-11-19T02:08:08.887Z,5.85
2022-11-19T02:13:34.595Z,8.00
2022-11-19T02:18:52.719Z,9.95
2022-11-19T02:24:40.384Z,8.00
2022-11-19T02:29:57.718Z,2.10
2022-11-19T02:35:28.742Z,2.30
2022-11-19T02:40:41.534Z,4.95
2022-11-19T02:45:50.247Z,5.05
2022-11-19T02:50:57.419Z,3.15
2022-11-19T02:56:10.987Z,6.50
2022-11-19T03:01:31.980Z,3.85
2022-11-19T03:06:34.799Z,3.85
2022-11-19T03:16:58.537Z,2.97
2022-11-19T03:22:16.312Z,7.15
2022-11-19T03:27:29.863Z,4.00
2022-11-19T03:32:38.009Z,1.85
2022-11-19T03:37:42.090Z,2.30
2022-11-19T03:42:46.788Z,3.45
2022-11-19T03:47:50.252Z,5.30
2022-11-19T03:52:52.383Z,4.00
2022-11-19T03:57:54.457Z,10.77
2022-11-19T04:02:56.618Z,7.25
2022-11-19T04:07:58.650Z,4.45
2022-11-19T04:13:00.761Z,2.70
2022-11-19T04:18:02.820Z,6.37
2022-11-19T04:23:04.870Z,2.17
2022-11-19T04:28:06.985Z,5.32
2022-11-19T04:33:09.420Z,3.85
2022-11-19T04:38:11.441Z,6.18
2022-11-19T04:43:13.531Z,5.37
2022-11-19T04:48:15.565Z,6.65
2022-11-19T04:53:18.082Z,6.85
2022-11-19T04:58:20.293Z,8.98
2022-11-19T05:03:22.348Z,2.35
2022-11-19T05:08:24.426Z,3.70
2022-11-19T05:13:26.513Z,11.60
2022-11-19T05:18:28.525Z,8.75
2022-11-19T05:23:30.641Z,10.63
2022-11-19T05:28:38.877Z,5.85
2022-11-19T05:33:41.960Z,12.87
2022-11-19T05:38:44.021Z,5.28
2022-11-19T05:43:46.472Z,6.45
2022-11-19T05:48:48.478Z,6.32
2022-11-19T05:53:50.967Z,8.27
2022-11-19T06:03:55.239Z,7.60
2022-11-19T06:08:57.291Z,7.45
2022-11-19T06:14:00.277Z,7.65
2022-11-19T06:19:02.344Z,4.80
2022-11-19T06:24:04.557Z,6.95
2022-11-19T06:29:07.062Z,5.37
2022-11-19T06:34:09.597Z,6.15
2022-11-19T06:39:11.775Z,5.93
2022-11-19T06:44:14.233Z,4.12
2022-11-19T06:49:20.107Z,5.10
2022-11-19T06:54:22.547Z,9.60
2022-11-19T06:59:24.638Z,7.50
2022-11-19T07:04:27.170Z,6.30
2022-11-19T07:09:29.239Z,6.53
2022-11-19T07:14:31.292Z,9.15
2022-11-19T07:19:33.454Z,6.68
2022-11-19T07:24:35.953Z,5.32
2022-11-19T07:29:38.731Z,5.75
2022-11-19T07:39:42.742Z,4.27
2022-11-19T07:44:44.867Z,6.18
2022-11-19T07:49:46.834Z,4.62
2022-11-19T07:54:48.835Z,3.37
2022-11-19T07:59:51.001Z,2.55
2022-11-19T08:04:53.079Z,3.28
2022-11-19T08:09:55.198Z,4.12
2022-11-19T08:14:57.253Z,1.73
2022-11-19T08:19:59.329Z,2.58
2022-11-19T08:25:01.624Z,2.12
2022-11-19T08:30:04.505Z,2.53
2022-11-19T08:35:07.563Z,4.05
2022-11-19T08:40:09.995Z,3.10
2022-11-19T08:45:14.602Z,4.65
2022-11-19T08:50:20.914Z,3.07
2022-11-19T08:55:23.466Z,3.65
2022-11-19T09:00:25.878Z,3.47
2022-11-19T09:05:27.902Z,3.70
2022-11-19T09:10:30.308Z,4.90
2022-11-19T09:15:32.569Z,3.85
2022-11-19T09:20:35.852Z,3.97
2022-11-19T09:25:37.872Z,5.50
2022-11-19T09:30:39.966Z,4.78
2022-11-19T09:35:42.881Z,5.30
2022-11-19T09:40:47.675Z,6.43
2022-11-19T09:46:05.972Z,6.03
2022-11-19T09:51:18.897Z,6.05
2022-11-19T09:56:30.711Z,5.30
2022-11-19T10:01:35.766Z,5.65
2022-11-19T10:06:56.832Z,6.50
2022-11-19T10:12:24.311Z,5.70
2022-11-19T10:17:35.110Z,6.80
2022-11-19T10:23:03.339Z,6.00
2022-11-19T10:28:14.722Z,6.37
2022-11-19T10:33:40.270Z,6.30
2022-11-19T10:38:51.292Z,5.60
2022-11-19T10:44:00.596Z,8.10
2022-11-19T10:49:04.003Z,4.80
2022-11-19T10:54:21.261Z,5.35
2022-11-19T10:59:26.216Z,5.60
2022-11-19T11:04:30.093Z,4.15
2022-11-19T11:09:34.005Z,3.45
2022-11-19T11:14:51.930Z,4.60
2022-11-19T11:20:05.559Z,3.35
2022-11-19T11:25:26.839Z,4.70
2022-11-19T11:30:28.931Z,4.60
2022-11-19T11:35:33.993Z,4.10
2022-11-19T11:40:36.893Z,4.60
2022-11-19T11:45:39.173Z,4.45
2022-11-19T11:50:45.826Z,4.35
2022-11-19T11:56:01.103Z,2.75
2022-11-19T12:01:20.238Z,3.20
2022-11-19T12:06:47.782Z,2.90
2022-11-19T12:12:01.233Z,4.80
2022-11-19T12:17:42.922Z,4.30
2022-11-19T12:22:55.836Z,4.60
2022-11-19T12:28:19.346Z,3.53
2022-11-19T12:33:49.034Z,4.47
2022-11-19T12:39:09.249Z,4.50
2022-11-19T12:44:47.348Z,3.90
2022-11-19T12:50:22.033Z,6.40
2022-11-19T12:55:34.592Z,5.70
2022-11-19T13:00:46.841Z,4.03
2022-11-19T13:05:49.479Z,3.87
2022-11-19T13:11:04.352Z,4.20
2022-11-19T13:16:14.439Z,3.15
2022-11-19T13:21:42.497Z,3.85
2022-11-19T13:26:44.712Z,3.45
2022-11-19T13:31:59.883Z,3.62
2022-11-19T13:37:12.817Z,3.25
2022-11-19T13:42:35.540Z,4.30
2022-11-19T13:47:58.248Z,4.83
2022-11-19T13:53:18.939Z,5.37
2022-11-19T13:58:40.516Z,4.00
2022-11-19T14:04:23.641Z,6.35
2022-11-19T14:09:49.605Z,5.50
2022-11-19T14:15:25.444Z,5.85
2022-11-19T14:20:58.530Z,7.65
2022-11-19T14:26:19.321Z,6.70
2022-11-19T14:31:24.449Z,6.65
2022-11-19T14:36:46.253Z,7.00
2022-11-19T14:42:15.652Z,7.85
2022-11-19T14:47:26.308Z,6.70
2022-11-19T14:57:38.711Z,6.12
2022-11-19T15:02:46.001Z,6.75
2022-11-19T15:07:55.909Z,6.30
2022-11-19T15:13:40.765Z,4.70
2022-11-19T15:18:42.841Z,6.62
2022-11-19T15:24:17.452Z,5.35
2022-11-19T15:29:53.607Z,8.00
2022-11-19T15:35:15.431Z,7.15
2022-11-19T15:40:23.692Z,6.20
2022-11-19T15:45:30.256Z,11.25
2022-11-19T15:50:32.446Z,6.65
2022-11-19T15:55:35.611Z,6.50
2022-11-19T16:00:50.271Z,6.30
2022-11-19T16:06:07.067Z,7.90
2022-11-19T16:11:27.762Z,11.05
2022-11-19T16:16:48.770Z,9.10
2022-11-19T16:21:57.809Z,12.10
2022-11-19T16:27:02.547Z,11.60
2022-11-19T16:32:05.223Z,11.70
2022-11-19T16:42:18.112Z,9.77
2022-11-19T16:47:32.468Z,10.70
2022-11-19T16:52:41.744Z,8.80
2022-11-19T16:57:55.963Z,9.27
2022-11-19T17:02:58.315Z,9.75
2022-11-19T17:08:06.633Z,10.45
2022-11-19T17:13:21.041Z,11.45
2022-11-19T17:18:32.439Z,8.75
2022-11-19T17:23:46.045Z,9.83
2022-11-19T17:28:52.051Z,8.55
2022-11-19T17:33:58.899Z,9.45
2022-11-19T17:39:01.024Z,10.35
2022-11-19T17:44:22.004Z,10.30
2022-11-19T17:49:24.855Z,10.95
2022-11-19T17:59:30.168Z,12.60
2022-11-19T18:04:32.748Z,13.80
2022-11-19T18:14:37.367Z,12.60
2022-11-19T18:19:39.700Z,14.98
2022-11-19T18:24:41.838Z,13.02
2022-11-19T18:29:43.971Z,11.75
2022-11-19T18:34:46.433Z,15.57
2022-11-19T18:39:48.511Z,15.73
2022-11-19T18:44:50.950Z,14.57
2022-11-19T18:49:53.169Z,14.38
2022-11-19T18:54:55.344Z,16.37
2022-11-19T18:59:57.436Z,15.13
2022-11-19T19:04:59.941Z,15.43
2022-11-19T19:10:03.131Z,15.55
2022-11-19T19:15:05.675Z,16.50
2022-11-19T19:20:08.707Z,13.95
2022-11-19T19:25:10.833Z,16.13
2022-11-19T19:30:13.200Z,14.90
2022-11-19T19:35:15.356Z,14.07
2022-11-19T19:40:17.969Z,16.55
2022-11-19T19:50:22.085Z,17.17
2022-11-19T19:55:25.136Z,18.92
2022-11-19T20:00:27.329Z,17.17
2022-11-19T20:05:32.112Z,16.17
2022-11-19T20:10:34.164Z,16.80
2022-11-19T20:15:36.616Z,19.85
2022-11-19T20:20:38.754Z,15.73
2022-11-19T20:25:41.258Z,14.75
2022-11-19T20:30:43.383Z,17.42
2022-11-19T20:35:52.370Z,13.93
2022-11-19T20:40:55.136Z,16.17
2022-11-19T20:46:10.419Z,17.80
2022-11-19T20:51:13.470Z,16.53
2022-11-19T20:56:16.079Z,19.50
2022-11-19T21:06:20.457Z,17.73
2022-11-19T21:11:23.195Z,19.73
2022-11-19T21:16:26.616Z,19.00
2022-11-19T21:21:29.165Z,17.40
2022-11-19T21:26:31.259Z,16.75
2022-11-19T21:31:39.063Z,18.08
2022-11-19T21:36:42.888Z,24.10
2022-11-19T21:41:45.250Z,20.10
2022-11-19T21:46:47.373Z,20.08
2022-11-19T21:51:49.569Z,19.95
2022-11-19T21:56:51.679Z,17.83
2022-11-19T22:01:55.014Z,20.25
2022-11-19T22:06:57.599Z,18.17
2022-11-19T22:11:59.775Z,19.00
2022-11-19T22:17:01.936Z,21.90
2022-11-19T22:22:05.356Z,21.50
2022-11-19T22:27:07.527Z,20.15
2022-11-19T22:32:09.729Z,21.37
2022-11-19T22:37:12.085Z,20.30
2022-11-19T22:42:14.955Z,21.58
2022-11-19T22:47:16.979Z,19.40
2022-11-19T22:52:19.137Z,19.05
2022-11-19T22:57:21.600Z,17.70
2022-11-19T23:02:23.703Z,20.12
2022-11-19T23:07:25.812Z,18.67
2022-11-19T23:12:46.753Z,20.70
2022-11-19T23:17:48.916Z,19.30
2022-11-19T23:22:51.035Z,19.85
2022-11-19T23:27:53.066Z,19.35
2022-11-19T23:32:55.476Z,21.25
2022-11-19T23:37:57.546Z,18.90
2022-11-19T23:42:59.616Z,17.25
2022-11-19T23:48:01.922Z,18.62
2022-11-19T23:53:04.029Z,18.52
2022-11-19T23:58:06.097Z,20.83
